Babworth, United Kingdom
Current Conditions -  °F | °C
As of 1:20 PM on Friday 19 Dec 2014 (Local Time) from EGCN Reporting Station
Few Clouds Few Clouds  
Wind Chill: 39°   Ceiling: Unl
Heat Index: 46°   Visibility: 6mi
Dew Point: 36°   Wind: 20mph
Humidity: 66%   Direction: 270°W
Pressure: 29.88"   Gusts: NA
Location:  53.32°N, 0.98°W
Report Text: EGCN 191320Z 27017KT 9999 FEW028 08/02 Q1012
Loading
Personal Weather Stations






























Interactive Weather Map New forecast layout! Learn more

10-Day Weather Forecast

Advertisements
Track Severe Weather on mobile